Time;durP1;ratioP1;P1;durP2;ratioP2;P2;SDS_P1;SDS_P2;PMS_P1;PMS_P2;Temp;Humidity;BMP_temperature;BMP_pressure;BME280_temperature;BME280_humidity;BME280_pressure;Samples;Min_cycle;Max_cycle;Signal;HPM_P1;HPM_P2
2022/12/09 00:00:06;;;;;;;36.88;32.85;;;7.40;99.90;;;;;;5114386;28;20045;-64
2022/12/09 00:02:32;;;;;;;40.72;34.33;;;7.40;99.90;;;;;;5114370;28;20361;-64
2022/12/09 00:04:57;;;;;;;47.90;37.25;;;7.40;99.90;;;;;;5114216;28;20031;-64
2022/12/09 00:07:23;;;;;;;39.53;33.67;;;7.30;99.90;;;;;;5094764;28;20051;-65
2022/12/09 00:09:49;;;;;;;41.10;33.67;;;7.40;99.90;;;;;;5114323;28;20383;-64
2022/12/09 00:12:14;;;;;;;41.95;34.40;;;7.40;99.90;;;;;;5095869;28;20028;-65
2022/12/09 00:14:40;;;;;;;40.47;34.03;;;7.40;99.90;;;;;;5113702;28;20035;-65
2022/12/09 00:17:06;;;;;;;38.03;33.47;;;7.40;99.90;;;;;;5113915;28;20024;-65
2022/12/09 00:19:33;;;;;;;43.00;33.65;;;7.40;99.90;;;;;;5114281;28;20127;-65
2022/12/09 00:21:58;;;;;;;40.38;34.15;;;7.50;99.90;;;;;;5113857;28;20108;-64
2022/12/09 00:24:24;;;;;;;49.55;39.78;;;7.40;99.90;;;;;;5113905;28;20459;-64
2022/12/09 00:26:50;;;;;;;47.65;39.30;;;7.40;99.90;;;;;;5095666;28;20032;-65
2022/12/09 00:29:15;;;;;;;41.38;35.38;;;7.40;99.90;;;;;;5113562;28;20026;-64
2022/12/09 00:31:41;;;;;;;43.95;37.33;;;7.40;99.90;;;;;;5113630;28;20043;-64
2022/12/09 00:34:10;;;;;;;53.40;40.78;;;7.40;99.90;;;;;;5113699;28;20099;-65
2022/12/09 00:36:36;;;;;;;51.53;40.67;;;7.40;99.90;;;;;;5113703;28;20028;-65
2022/12/09 00:39:02;;;;;;;47.63;39.22;;;7.40;99.90;;;;;;5113661;28;20077;-65
2022/12/09 00:41:29;;;;;;;51.08;39.30;;;7.40;99.90;;;;;;5113495;28;20032;-65
2022/12/09 00:43:54;;;;;;;50.25;40.67;;;7.40;99.90;;;;;;5113062;28;20487;-65
2022/12/09 00:46:20;;;;;;;52.35;41.17;;;7.30;99.90;;;;;;5114146;28;20032;-64
2022/12/09 00:48:46;;;;;;;55.67;41.85;;;7.30;99.90;;;;;;5113343;28;20024;-64
2022/12/09 00:51:15;;;;;;;47.78;37.92;;;7.30;99.90;;;;;;5113417;28;20023;-64
2022/12/09 00:53:41;;;;;;;53.67;40.90;;;7.30;99.90;;;;;;5113271;28;20023;-64
2022/12/09 00:56:07;;;;;;;44.70;37.63;;;7.30;99.90;;;;;;5113265;28;20027;-65
2022/12/09 00:58:33;;;;;;;46.13;37.65;;;7.30;99.90;;;;;;5113391;28;20065;-64
2022/12/09 01:00:59;;;;;;;40.30;35.33;;;7.40;99.90;;;;;;5113229;28;20282;-65
2022/12/09 01:03:25;;;;;;;53.35;41.38;;;7.40;99.90;;;;;;5113097;28;20030;-64
2022/12/09 01:05:50;;;;;;;47.30;38.58;;;7.30;99.90;;;;;;5113519;28;20035;-65
2022/12/09 01:08:16;;;;;;;53.90;41.30;;;7.30;99.90;;;;;;5113030;28;20011;-64
2022/12/09 01:10:43;;;;;;;51.85;40.05;;;7.30;99.90;;;;;;5094724;28;20391;-64
2022/12/09 01:13:10;;;;;;;52.88;41.70;;;7.30;99.90;;;;;;5112896;28;20026;-64
2022/12/09 01:15:37;;;;;;;46.80;38.95;;;7.30;99.90;;;;;;5112585;28;20036;-64
2022/12/09 01:18:03;;;;;;;46.75;38.63;;;7.40;99.90;;;;;;5112190;28;20024;-64
2022/12/09 01:20:29;;;;;;;43.55;35.33;;;7.40;99.90;;;;;;5113038;28;20106;-65
2022/12/09 01:22:55;;;;;;;48.75;39.70;;;7.40;99.90;;;;;;5113315;28;20051;-65
2022/12/09 01:25:20;;;;;;;49.28;39.28;;;7.40;99.90;;;;;;5112490;28;20039;-64
2022/12/09 01:27:46;;;;;;;50.08;39.22;;;7.40;99.90;;;;;;5112239;28;20527;-65
2022/12/09 01:30:13;;;;;;;47.80;39.88;;;7.40;99.90;;;;;;5112400;28;20095;-65
2022/12/09 01:32:40;;;;;;;43.50;37.53;;;7.40;99.90;;;;;;5112747;28;20023;-65
2022/12/09 01:35:06;;;;;;;47.35;37.80;;;7.40;99.90;;;;;;5112403;28;20032;-65
2022/12/09 01:37:33;;;;;;;48.22;40.65;;;7.40;99.90;;;;;;5112062;28;20024;-65
2022/12/09 01:39:58;;;;;;;41.40;36.15;;;7.40;99.90;;;;;;5112611;28;20031;-64
2022/12/09 01:42:26;;;;;;;39.50;34.03;;;7.30;99.90;;;;;;5112103;28;20034;-65
2022/12/09 01:45:19;;;;;;;43.92;37.78;;;7.30;99.90;;;;;;5112524;28;20030;-65
2022/12/09 01:47:59;;;;;;;39.78;33.88;;;7.30;99.90;;;;;;5112597;28;20111;-65
2022/12/09 01:50:26;;;;;;;42.88;37.97;;;7.30;99.90;;;;;;5112244;28;20153;-64
2022/12/09 01:52:52;;;;;;;41.38;35.47;;;7.30;99.90;;;;;;5112187;28;20035;-64
2022/12/09 01:55:18;;;;;;;44.00;39.03;;;7.30;99.90;;;;;;5112496;28;20236;-64
2022/12/09 01:57:45;;;;;;;40.22;34.90;;;7.30;99.90;;;;;;5111833;28;20028;-64
2022/12/09 02:00:12;;;;;;;36.45;32.15;;;7.30;99.90;;;;;;5112005;28;20068;-65
2022/12/09 02:02:39;;;;;;;34.80;31.10;;;7.30;99.90;;;;;;5111899;28;20069;-65
2022/12/09 02:05:06;;;;;;;47.40;35.13;;;7.20;99.90;;;;;;5112006;28;20053;-64
2022/12/09 02:07:31;;;;;;;39.17;35.05;;;7.20;99.90;;;;;;5111750;28;20024;-64
2022/12/09 02:09:58;;;;;;;38.45;34.35;;;7.20;99.90;;;;;;5111909;28;20038;-64
2022/12/09 02:12:48;;;;;;;38.53;33.28;;;7.20;99.90;;;;;;5111506;28;20049;-64
2022/12/09 02:15:22;;;;;;;32.22;28.75;;;7.10;99.90;;;;;;5111900;28;20067;-64
2022/12/09 02:17:58;;;;;;;40.40;34.55;;;7.10;99.90;;;;;;5111827;28;20447;-64
2022/12/09 02:20:52;;;;;;;34.60;30.98;;;7.00;99.90;;;;;;5111704;28;20038;-64
2022/12/09 02:23:24;;;;;;;;;;;7.00;99.90;;;;;;5112373;28;20059;-64
2022/12/09 02:26:16;;;;;;;28.90;25.75;;;7.00;99.90;;;;;;5111487;28;19950;-65
2022/12/09 02:29:13;;;;;;;32.17;28.80;;;6.90;99.90;;;;;;5009032;28;20509;-64
2022/12/09 02:32:03;;;;;;;27.08;24.48;;;6.90;99.90;;;;;;5007357;28;20050;-64
2022/12/09 02:34:32;;;;;;;26.65;23.95;;;6.80;99.90;;;;;;5013131;28;20061;-65
2022/12/09 02:37:03;;;;;;;26.58;23.98;;;6.80;99.90;;;;;;5013172;28;20037;-65
2022/12/09 02:39:53;;;;;;;28.73;25.48;;;6.80;99.90;;;;;;5029436;28;20105;-64
2022/12/09 02:42:22;;;;;;;25.70;23.13;;;6.70;99.90;;;;;;5006138;28;20044;-65
2022/12/09 02:44:50;;;;;;;23.70;21.48;;;6.70;99.90;;;;;;5012910;28;20033;-64
2022/12/09 02:47:20;;;;;;;24.35;21.95;;;6.70;99.90;;;;;;5013153;28;20120;-64
2022/12/09 02:49:50;;;;;;;25.10;22.67;;;6.70;99.90;;;;;;5013298;28;20465;-64
2022/12/09 02:52:18;;;;;;;26.17;23.70;;;6.70;99.90;;;;;;5012791;28;20569;-64
2022/12/09 02:54:44;;;;;;;25.15;22.63;;;6.60;99.90;;;;;;5012354;28;20041;-64
2022/12/09 02:57:15;;;;;;;28.00;25.10;;;6.60;99.90;;;;;;5012810;28;20064;-65
2022/12/09 02:59:41;;;;;;;28.25;25.55;;;6.60;99.90;;;;;;5012565;28;20551;-64
2022/12/09 03:02:27;;;;;;;28.45;23.45;;;6.60;99.90;;;;;;5012914;28;20032;-64
2022/12/09 03:05:06;;;;;;;26.58;23.92;;;6.60;99.90;;;;;;5033352;28;20042;-64
2022/12/09 03:08:10;;;;;;;28.88;26.08;;;6.60;99.90;;;;;;5095036;28;20036;-64
2022/12/09 03:10:57;;;;;;;26.70;24.05;;;6.50;99.90;;;;;;5094815;28;20024;-64
2022/12/09 03:13:44;;;;;;;26.65;24.00;;;6.50;99.90;;;;;;5094681;28;20390;-65
2022/12/09 03:16:13;;;;;;;26.15;23.75;;;6.50;99.90;;;;;;5094560;28;20419;-64
2022/12/09 03:18:45;;;;;;;28.77;25.70;;;6.50;99.90;;;;;;5098385;28;20483;-64
2022/12/09 03:21:13;;;;;;;26.35;23.52;;;6.50;99.90;;;;;;5115388;28;20047;-64
2022/12/09 03:23:42;;;;;;;27.42;24.80;;;6.40;99.90;;;;;;5115055;28;20047;-64
2022/12/09 03:26:09;;;;;;;28.48;25.48;;;6.40;99.90;;;;;;5114915;28;20020;-65
2022/12/09 03:28:44;;;;;;;26.52;23.95;;;6.40;99.90;;;;;;5114853;28;20028;-65
2022/12/09 03:31:14;;;;;;;24.33;21.92;;;6.40;99.90;;;;;;5114829;28;20047;-64
2022/12/09 03:33:42;;;;;;;25.73;23.17;;;6.40;99.90;;;;;;5114808;28;20042;-64
2022/12/09 03:36:12;;;;;;;26.48;23.75;;;6.40;99.90;;;;;;5114393;28;20032;-65
2022/12/09 03:38:39;;;;;;;25.55;23.05;;;6.40;99.90;;;;;;5114289;28;20015;-64
2022/12/09 03:41:15;;;;;;;25.08;22.55;;;6.30;99.90;;;;;;5114361;28;20509;-64
2022/12/09 03:43:50;;;;;;;25.73;23.33;;;6.40;99.90;;;;;;5114987;28;20425;-64
2022/12/09 03:46:17;;;;;;;26.33;23.73;;;6.30;99.90;;;;;;5114600;28;20021;-65
2022/12/09 03:48:43;;;;;;;25.73;23.10;;;6.30;99.90;;;;;;5114517;28;20080;-65
2022/12/09 03:51:30;;;;;;;31.98;28.90;;;6.40;99.90;;;;;;5114479;28;20379;-65
2022/12/09 03:54:14;;;;;;;24.02;21.63;;;6.30;99.90;;;;;;5114145;28;20019;-64
2022/12/09 03:56:44;;;;;;;25.02;22.52;;;6.30;99.90;;;;;;5114777;28;20043;-64
2022/12/09 03:59:14;;;;;;;28.23;25.55;;;6.30;99.90;;;;;;5114318;28;20028;-64
2022/12/09 04:01:41;;;;;;;23.90;21.60;;;6.30;99.90;;;;;;5114164;28;20095;-65
2022/12/09 04:04:07;;;;;;;22.67;20.42;;;6.40;99.90;;;;;;5114369;28;20026;-64
2022/12/09 04:06:34;;;;;;;23.02;20.92;;;6.30;99.90;;;;;;5114257;28;20020;-64
2022/12/09 04:09:00;;;;;;;23.05;20.73;;;6.30;99.90;;;;;;5113799;28;20445;-64
2022/12/09 04:11:25;;;;;;;25.65;23.15;;;6.30;99.90;;;;;;5114436;28;20012;-65
2022/12/09 04:13:51;;;;;;;22.92;20.63;;;6.30;99.90;;;;;;5113797;28;20472;-64
2022/12/09 04:16:17;;;;;;;23.63;21.40;;;6.30;99.90;;;;;;5113933;28;20028;-64
2022/12/09 04:18:43;;;;;;;25.23;22.73;;;6.30;99.90;;;;;;5113694;28;20024;-64
2022/12/09 04:21:10;;;;;;;23.80;21.60;;;6.20;99.90;;;;;;5113939;28;20023;-64
2022/12/09 04:23:36;;;;;;;24.38;21.95;;;6.20;99.90;;;;;;5113502;28;20088;-65
2022/12/09 04:26:03;;;;;;;23.83;21.33;;;6.20;99.90;;;;;;5114035;28;20024;-64
2022/12/09 04:28:29;;;;;;;26.73;23.92;;;6.20;99.90;;;;;;5113830;28;20035;-64
2022/12/09 04:30:54;;;;;;;31.27;28.15;;;6.10;99.90;;;;;;5113464;28;20055;-64
2022/12/09 04:33:20;;;;;;;23.85;21.55;;;6.20;99.90;;;;;;5113600;28;20052;-64
2022/12/09 04:35:46;;;;;;;25.15;22.65;;;6.20;99.90;;;;;;5113337;28;20084;-64
2022/12/09 04:38:12;;;;;;;25.00;22.60;;;6.20;99.90;;;;;;5114130;28;20476;-64
2022/12/09 04:40:38;;;;;;;23.98;21.60;;;6.20;99.90;;;;;;5113375;28;20031;-64
2022/12/09 04:43:04;;;;;;;24.85;22.45;;;6.20;99.90;;;;;;5113341;28;20080;-64
2022/12/09 04:45:29;;;;;;;26.48;23.65;;;6.20;99.90;;;;;;5113580;28;20403;-64
2022/12/09 04:47:57;;;;;;;25.90;22.83;;;6.30;99.90;;;;;;5113332;28;20560;-64
2022/12/09 04:50:23;;;;;;;25.35;22.67;;;6.20;99.90;;;;;;5113051;28;20055;-64
2022/12/09 04:52:49;;;;;;;25.98;23.42;;;6.10;99.90;;;;;;5112562;28;20050;-64
2022/12/09 04:55:14;;;;;;;27.60;24.85;;;6.20;99.90;;;;;;5113132;28;20053;-65
2022/12/09 04:57:40;;;;;;;28.10;25.35;;;6.10;99.90;;;;;;5113116;28;20059;-65
2022/12/09 05:00:07;;;;;;;25.98;23.38;;;6.10;99.90;;;;;;5113064;28;20069;-65
2022/12/09 05:02:33;;;;;;;26.00;23.40;;;6.20;99.90;;;;;;5113293;28;20012;-64
2022/12/09 05:05:01;;;;;;;27.35;24.55;;;6.20;99.90;;;;;;5112456;28;20238;-65
2022/12/09 05:07:29;;;;;;;26.90;24.27;;;6.20;99.90;;;;;;5113444;28;20140;-65
2022/12/09 05:09:56;;;;;;;25.20;22.80;;;6.20;99.90;;;;;;5112854;28;20019;-64
2022/12/09 05:12:23;;;;;;;28.58;25.58;;;6.10;99.90;;;;;;5112866;28;20035;-65
2022/12/09 05:14:48;;;;;;;25.38;22.95;;;6.20;99.90;;;;;;5112736;28;20024;-64
2022/12/09 05:17:14;;;;;;;24.40;21.83;;;6.20;99.90;;;;;;5113207;28;20031;-65
2022/12/09 05:19:40;;;;;;;24.80;22.40;;;6.20;99.90;;;;;;5112007;28;20380;-65
2022/12/09 05:22:06;;;;;;;26.08;23.50;;;6.20;99.90;;;;;;5113012;28;20023;-64
2022/12/09 05:24:31;;;;;;;27.30;24.60;;;6.20;99.90;;;;;;5112506;28;20024;-64
2022/12/09 05:26:57;;;;;;;25.02;22.63;;;6.20;99.90;;;;;;5112731;28;20028;-65
2022/12/09 05:29:23;;;;;;;27.00;24.23;;;6.30;99.90;;;;;;5112547;28;20030;-64
2022/12/09 05:31:50;;;;;;;27.70;24.83;;;6.20;99.90;;;;;;5112675;28;20186;-65
2022/12/09 05:34:16;;;;;;;29.02;26.15;;;6.20;99.90;;;;;;5111942;28;20057;-65
2022/12/09 05:36:42;;;;;;;25.90;23.38;;;6.20;99.90;;;;;;5112211;28;20032;-65
2022/12/09 05:39:08;;;;;;;24.08;21.75;;;6.20;99.90;;;;;;5112222;28;20024;-65
2022/12/09 05:41:34;;;;;;;26.90;24.33;;;6.20;99.90;;;;;;5112224;28;20552;-65
2022/12/09 05:43:59;;;;;;;24.33;21.88;;;6.10;99.90;;;;;;5112242;28;20031;-64
2022/12/09 05:46:25;;;;;;;26.67;23.95;;;6.20;99.90;;;;;;5112758;28;20017;-66
2022/12/09 05:48:51;;;;;;;29.02;26.02;;;6.20;99.90;;;;;;5111697;28;20036;-64
2022/12/09 05:51:26;;;;;;;27.23;24.42;;;6.20;99.90;;;;;;5112202;28;20023;-64
2022/12/09 05:53:52;;;;;;;24.13;21.85;;;6.20;99.90;;;;;;5111975;28;20028;-64
2022/12/09 05:56:19;;;;;;;22.85;20.75;;;6.20;99.90;;;;;;5112207;28;20031;-64
2022/12/09 05:58:46;;;;;;;25.40;22.83;;;6.20;99.90;;;;;;5112120;28;20034;-64
2022/12/09 06:01:12;;;;;;;24.98;22.63;;;6.20;99.90;;;;;;5111990;28;20027;-64
2022/12/09 06:03:38;;;;;;;23.73;21.42;;;6.30;99.90;;;;;;5112060;28;20384;-65
2022/12/09 06:06:09;;;;;;;31.23;28.33;;;6.20;99.90;;;;;;5092719;28;20027;-64
2022/12/09 06:08:35;;;;;;;26.15;23.40;;;6.20;99.90;;;;;;5111904;28;20563;-64
2022/12/09 06:11:01;;;;;;;27.00;24.40;;;6.20;99.90;;;;;;5112019;28;20064;-65
2022/12/09 06:13:27;;;;;;;25.83;23.42;;;6.20;99.90;;;;;;5111788;28;20103;-64
2022/12/09 06:15:53;;;;;;;24.10;21.80;;;6.20;99.90;;;;;;5112079;28;20566;-64
2022/12/09 06:18:19;;;;;;;25.10;22.80;;;6.20;99.90;;;;;;5111385;28;20022;-64
2022/12/09 06:20:44;;;;;;;28.88;26.17;;;6.20;99.90;;;;;;5111821;28;20030;-65
2022/12/09 06:23:10;;;;;;;27.58;24.95;;;6.20;99.90;;;;;;5111713;28;20102;-64
2022/12/09 06:25:36;;;;;;;26.83;24.20;;;6.20;99.90;;;;;;5112122;28;20492;-65
2022/12/09 06:28:02;;;;;;;27.25;24.58;;;6.10;99.90;;;;;;5111697;28;20482;-65
2022/12/09 06:30:28;;;;;;;27.48;24.75;;;6.20;99.90;;;;;;5093558;28;20399;-65
2022/12/09 06:32:54;;;;;;;28.08;25.38;;;6.20;99.90;;;;;;5111290;28;20038;-65
2022/12/09 06:35:20;;;;;;;26.65;24.13;;;6.20;99.90;;;;;;5112200;28;20035;-65
2022/12/09 06:37:45;;;;;;;27.33;24.70;;;6.20;99.90;;;;;;5111430;28;20456;-64
2022/12/09 06:40:11;;;;;;;31.98;28.75;;;6.20;99.90;;;;;;5111488;28;20024;-65
2022/12/09 06:42:37;;;;;;;40.33;35.83;;;6.20;99.90;;;;;;5111493;28;20024;-65
2022/12/09 06:45:03;;;;;;;36.92;33.03;;;6.20;99.90;;;;;;5111779;28;20152;-65
2022/12/09 06:47:29;;;;;;;40.65;35.63;;;6.20;99.90;;;;;;5111184;28;20099;-65
2022/12/09 06:49:56;;;;;;;40.80;33.72;;;6.20;99.90;;;;;;5111570;28;20458;-65
2022/12/09 06:52:22;;;;;;;40.63;36.08;;;6.20;99.90;;;;;;5111578;28;20024;-65
2022/12/09 06:54:48;;;;;;;30.60;27.80;;;6.10;99.90;;;;;;5111097;28;20077;-65
2022/12/09 06:57:14;;;;;;;31.77;28.60;;;6.10;99.90;;;;;;5093840;28;20059;-65
2022/12/09 06:59:39;;;;;;;35.75;31.98;;;6.00;99.90;;;;;;5111466;28;20020;-64
2022/12/09 07:02:06;;;;;;;32.80;29.60;;;6.00;99.90;;;;;;5111144;28;20032;-65
2022/12/09 07:04:31;;;;;;;36.22;32.30;;;6.00;99.90;;;;;;5111421;28;20031;-64
2022/12/09 07:06:57;;;;;;;32.17;29.05;;;5.90;99.90;;;;;;5111737;28;20031;-65
2022/12/09 07:09:23;;;;;;;31.98;28.80;;;5.90;99.90;;;;;;5111210;28;20047;-64
2022/12/09 07:11:49;;;;;;;33.42;29.90;;;5.90;99.90;;;;;;5093271;28;20024;-64
2022/12/09 07:14:16;;;;;;;35.60;32.00;;;5.90;99.90;;;;;;5110963;28;20036;-63
2022/12/09 07:16:43;;;;;;;32.72;29.58;;;5.90;99.90;;;;;;5113022;28;20024;-64
2022/12/09 07:19:17;;;;;;;33.17;29.88;;;5.80;99.90;;;;;;5115151;28;20090;-63
2022/12/09 07:21:43;;;;;;;33.20;29.83;;;5.90;99.90;;;;;;5114966;28;20032;-64
2022/12/09 07:24:09;;;;;;;36.15;32.42;;;5.80;99.90;;;;;;5114954;28;20024;-64
2022/12/09 07:26:35;;;;;;;36.40;32.70;;;5.90;99.90;;;;;;5114660;28;20027;-64
2022/12/09 07:29:02;;;;;;;36.53;32.78;;;5.90;99.90;;;;;;5114582;28;20126;-64
2022/12/09 07:31:29;;;;;;;37.15;33.45;;;5.90;99.90;;;;;;5114761;28;20035;-64
2022/12/09 07:33:57;;;;;;;37.25;33.42;;;5.90;99.90;;;;;;5096393;28;20479;-64
2022/12/09 07:36:25;;;;;;;38.47;34.50;;;5.90;99.90;;;;;;5114562;28;20491;-64
2022/12/09 07:39:06;;;;;;;36.85;33.08;;;5.90;99.90;;;;;;5114711;28;20058;-65
2022/12/09 07:41:32;;;;;;;38.65;34.53;;;5.90;99.90;;;;;;5114958;28;20503;-64
2022/12/09 07:43:58;;;;;;;39.10;35.20;;;5.90;99.90;;;;;;5114612;28;20024;-65
2022/12/09 07:46:26;;;;;;;45.15;40.15;;;5.90;99.90;;;;;;5114203;28;20367;-65
2022/12/09 07:48:52;;;;;;;38.78;34.88;;;5.90;99.90;;;;;;5114384;28;20043;-63
2022/12/09 07:51:19;;;;;;;39.40;35.35;;;5.90;99.90;;;;;;5114599;28;20485;-64
2022/12/09 07:53:45;;;;;;;36.47;32.72;;;5.90;99.90;;;;;;5114356;28;20111;-63
2022/12/09 07:56:13;;;;;;;38.97;34.97;;;5.90;99.90;;;;;;5114483;28;20101;-72
2022/12/09 07:58:40;;;;;;;38.60;34.55;;;5.90;99.90;;;;;;5114778;28;20023;-65
2022/12/09 08:01:07;;;;;;;40.70;36.28;;;5.90;99.90;;;;;;5113875;28;20023;-65
2022/12/09 08:03:34;;;;;;;41.95;36.42;;;5.90;99.90;;;;;;5113673;28;20372;-65
2022/12/09 08:06:00;;;;;;;41.40;36.72;;;5.90;99.90;;;;;;5114370;28;20024;-64
2022/12/09 08:08:25;;;;;;;49.05;39.28;;;5.90;99.90;;;;;;5114304;28;20031;-64
2022/12/09 08:10:51;;;;;;;44.42;39.67;;;5.90;99.90;;;;;;5113966;28;20034;-65
2022/12/09 08:13:17;;;;;;;43.90;38.55;;;5.90;99.90;;;;;;5113697;28;20396;-65
2022/12/09 08:15:42;;;;;;;50.90;42.55;;;5.80;99.90;;;;;;5114141;28;20042;-65
2022/12/09 08:18:08;;;;;;;52.67;45.05;;;5.80;99.90;;;;;;5113906;28;20503;-65
2022/12/09 08:20:35;;;;;;;48.75;43.45;;;5.90;99.90;;;;;;5113591;28;20104;-65
2022/12/09 08:23:01;;;;;;;49.50;42.90;;;5.90;99.90;;;;;;5113938;28;20134;-64
2022/12/09 08:25:26;;;;;;;45.53;39.67;;;6.00;99.90;;;;;;5114178;28;20539;-65
2022/12/09 08:27:52;;;;;;;47.65;42.05;;;6.00;99.90;;;;;;5112292;28;20058;-65
2022/12/09 08:30:18;;;;;;;43.55;38.90;;;5.90;99.90;;;;;;5113508;28;20549;-64
2022/12/09 08:32:44;;;;;;;44.35;39.45;;;5.90;99.90;;;;;;5113297;28;20026;-65
2022/12/09 08:35:13;;;;;;;43.75;39.10;;;6.00;99.90;;;;;;5113754;28;20118;-65
2022/12/09 08:37:43;;;;;;;47.25;41.75;;;6.00;99.90;;;;;;5112811;28;20035;-65
2022/12/09 08:40:10;;;;;;;51.85;43.80;;;6.20;99.90;;;;;;5112966;28;20554;-64
2022/12/09 08:42:36;;;;;;;43.72;38.85;;;6.20;99.90;;;;;;5113166;28;20557;-65
2022/12/09 08:45:03;;;;;;;43.65;38.92;;;6.10;99.90;;;;;;5113656;28;20027;-64
2022/12/09 08:47:29;;;;;;;49.55;43.30;;;6.20;99.90;;;;;;5113146;28;20050;-64
2022/12/09 08:49:55;;;;;;;44.20;39.38;;;6.30;99.90;;;;;;5113717;28;20069;-64
2022/12/09 08:52:20;;;;;;;62.72;54.35;;;6.30;99.90;;;;;;5113431;28;20035;-64
2022/12/09 08:54:46;;;;;;;76.00;62.72;;;6.40;99.90;;;;;;5112692;28;20387;-64
2022/12/09 08:57:12;;;;;;;50.00;42.30;;;6.30;99.90;;;;;;5113258;28;20028;-64
2022/12/09 08:59:37;;;;;;;47.33;41.47;;;6.30;99.90;;;;;;5113455;28;20023;-64
2022/12/09 09:02:03;;;;;;;44.55;37.95;;;6.30;99.90;;;;;;5095083;28;20024;-64
2022/12/09 09:04:30;;;;;;;44.33;38.97;;;6.30;99.90;;;;;;5113103;28;20019;-64
2022/12/09 09:06:56;;;;;;;40.15;35.65;;;6.30;99.90;;;;;;5113269;28;20102;-64
2022/12/09 09:09:22;;;;;;;40.15;35.90;;;6.30;99.90;;;;;;5112957;28;20043;-64
2022/12/09 09:11:47;;;;;;;40.60;36.35;;;6.20;99.90;;;;;;5113050;28;20525;-64
2022/12/09 09:14:14;;;;;;;41.42;36.63;;;6.10;99.90;;;;;;5112778;28;20038;-65
2022/12/09 09:16:41;;;;;;;41.13;36.55;;;6.20;99.90;;;;;;5112944;28;20321;-64
2022/12/09 09:19:11;;;;;;;39.85;35.60;;;6.20;99.90;;;;;;5112930;28;20019;-65
2022/12/09 09:21:37;;;;;;;40.60;35.15;;;6.30;99.90;;;;;;5112640;28;20047;-64
2022/12/09 09:24:11;;;;;;;38.78;34.75;;;6.30;99.90;;;;;;5112964;28;20039;-64
2022/12/09 09:26:39;;;;;;;39.78;35.00;;;6.20;99.90;;;;;;5112275;28;20110;-65
2022/12/09 09:29:05;;;;;;;35.83;31.77;;;6.50;99.90;;;;;;5112538;28;20019;-65
2022/12/09 09:31:31;;;;;;;35.88;32.17;;;6.40;99.90;;;;;;5112302;28;20047;-64
2022/12/09 09:33:56;;;;;;;38.55;34.33;;;6.40;99.90;;;;;;5112298;28;20551;-64
2022/12/09 09:36:23;;;;;;;38.15;34.15;;;6.30;99.90;;;;;;5112193;28;20049;-64
2022/12/09 09:38:51;;;;;;;38.15;33.88;;;6.50;99.90;;;;;;5112499;28;20050;-65
2022/12/09 09:41:26;;;;;;;36.90;33.00;;;6.50;99.90;;;;;;5111647;28;20479;-65
2022/12/09 09:43:54;;;;;;;36.42;32.55;;;6.70;99.90;;;;;;5112487;28;20031;-65
2022/12/09 09:46:34;;;;;;;35.60;31.70;;;6.50;99.90;;;;;;5112671;28;20016;-64
2022/12/09 09:49:02;;;;;;;38.65;34.55;;;6.70;99.90;;;;;;5112367;28;20041;-65
2022/12/09 09:51:31;;;;;;;37.67;33.65;;;6.70;99.90;;;;;;5112230;28;20031;-64
2022/12/09 09:53:57;;;;;;;38.13;33.95;;;6.70;99.90;;;;;;5112412;28;20472;-65
2022/12/09 09:56:42;;;;;;;37.50;32.90;;;6.70;99.90;;;;;;5111786;28;20039;-64
2022/12/09 09:59:16;;;;;;;37.03;33.15;;;6.70;99.90;;;;;;5112204;28;20103;-64
2022/12/09 10:01:58;;;;;;;38.72;34.58;;;6.70;99.90;;;;;;5112246;28;20031;-64
2022/12/09 10:04:48;;;;;;;40.40;33.28;;;6.60;99.90;;;;;;5112067;28;20031;-64
2022/12/09 10:07:32;;;;;;;53.63;47.83;;;6.90;99.90;;;;;;5111996;28;20242;-65
2022/12/09 10:10:19;;;;;;;38.50;34.28;;;6.70;99.90;;;;;;5111672;28;20368;-65
2022/12/09 10:13:02;;;;;;;34.80;31.13;;;6.80;99.90;;;;;;5111906;28;20059;-65
2022/12/09 10:15:32;;;;;;;32.97;29.30;;;6.90;99.90;;;;;;5111818;28;20036;-64
2022/12/09 10:18:19;;;;;;;39.42;35.30;;;6.90;99.90;;;;;;5111979;28;20261;-64
2022/12/09 10:20:46;;;;;;;38.80;34.63;;;7.10;99.90;;;;;;5111777;28;20396;-64
2022/12/09 10:23:14;;;;;;;56.03;48.25;;;7.10;99.90;;;;;;5112086;28;20048;-64
2022/12/09 10:25:51;;;;;;;88.90;79.32;;;7.20;99.90;;;;;;5111476;28;20020;-64
2022/12/09 10:28:22;;;;;;;35.45;31.75;;;7.20;99.90;;;;;;5111673;28;20514;-64
2022/12/09 10:30:49;;;;;;;40.58;35.92;;;7.10;99.90;;;;;;5112683;28;20042;-64
2022/12/09 10:33:17;;;;;;;36.22;32.42;;;7.20;99.90;;;;;;5111827;28;20024;-65
2022/12/09 10:35:44;;;;;;;32.78;29.42;;;7.20;99.90;;;;;;5111505;28;20035;-65
2022/12/09 10:38:19;;;;;;;34.17;30.50;;;7.10;99.90;;;;;;5111521;28;20098;-64
2022/12/09 10:40:52;;;;;;;30.60;27.70;;;7.50;99.90;;;;;;5111691;28;20024;-65
2022/12/09 10:43:34;;;;;;;47.03;42.05;;;7.60;99.90;;;;;;5111642;28;20047;-64
2022/12/09 10:46:02;;;;;;;32.70;29.35;;;7.80;99.90;;;;;;5112032;28;20027;-64
2022/12/09 10:48:36;;;;;;;32.38;29.08;;;7.80;99.90;;;;;;5111802;28;20020;-64
2022/12/09 10:51:09;;;;;;;;;;;7.90;99.90;;;;;;5112630;28;20042;-64
2022/12/09 10:53:35;;;;;;;29.45;26.55;;;7.80;99.90;;;;;;5115310;28;19999;-64
2022/12/09 10:56:01;;;;;;;32.67;29.33;;;7.70;99.90;;;;;;5115833;28;20085;-64
2022/12/09 10:58:29;;;;;;;32.67;29.25;;;7.80;99.90;;;;;;5097443;28;20020;-64
2022/12/09 11:01:06;;;;;;;31.05;27.98;;;7.70;99.90;;;;;;5115556;28;20028;-64
2022/12/09 11:03:48;;;;;;;30.80;27.67;;;7.60;99.90;;;;;;5115488;28;20077;-64
2022/12/09 11:06:26;;;;;;;48.55;43.80;;;7.60;99.90;;;;;;5115368;28;20031;-65
2022/12/09 11:08:57;;;;;;;35.08;31.67;;;7.70;99.90;;;;;;5115004;28;20368;-64
2022/12/09 11:11:41;;;;;;;31.42;28.23;;;7.80;99.90;;;;;;5115394;28;20535;-65
2022/12/09 11:14:22;;;;;;;29.38;26.38;;;7.70;99.90;;;;;;5115130;28;20016;-64
2022/12/09 11:16:54;;;;;;;32.60;29.38;;;7.70;99.90;;;;;;5115057;28;20067;-64
2022/12/09 11:19:36;;;;;;;29.27;26.27;;;7.90;99.90;;;;;;5115015;28;20073;-64
2022/12/09 11:22:38;;;;;;;27.77;25.02;;;7.90;99.90;;;;;;5114394;28;20023;-64
2022/12/09 11:25:24;;;;;;;27.23;24.73;;;8.20;99.90;;;;;;5114896;28;20031;-64
2022/12/09 11:27:57;;;;;;;25.45;22.85;;;7.90;99.90;;;;;;5114792;28;20134;-64
2022/12/09 11:30:31;;;;;;;24.90;22.42;;;7.90;99.90;;;;;;5114790;28;20056;-64
2022/12/09 11:33:15;;;;;;;26.05;23.50;;;7.80;99.90;;;;;;5115052;28;20063;-64
2022/12/09 11:35:44;;;;;;;28.58;25.73;;;7.70;99.90;;;;;;5114625;28;20050;-65
2022/12/09 11:38:21;;;;;;;60.90;54.83;;;7.60;99.90;;;;;;5114438;28;20027;-64
2022/12/09 11:41:01;;;;;;;57.67;51.63;;;7.60;99.90;;;;;;5114604;28;20028;-65
2022/12/09 11:43:42;;;;;;;29.40;26.40;;;7.60;99.90;;;;;;5114560;28;20034;-64
2022/12/09 11:46:11;;;;;;;37.13;33.28;;;7.30;99.90;;;;;;5114560;28;20020;-64
2022/12/09 11:48:38;;;;;;;30.70;27.60;;;7.10;99.90;;;;;;5114900;28;20433;-64
2022/12/09 11:51:04;;;;;;;32.55;29.08;;;7.30;99.90;;;;;;5114413;28;20012;-64
2022/12/09 11:53:39;;;;;;;30.20;27.00;;;7.20;99.90;;;;;;5114270;28;20054;-64
2022/12/09 11:56:24;;;;;;;28.73;25.83;;;6.90;99.90;;;;;;5114177;28;20039;-64
2022/12/09 11:59:01;;;;;;;31.13;27.92;;;7.20;99.90;;;;;;5114216;28;20484;-65
2022/12/09 12:01:55;;;;;;;35.70;32.13;;;7.10;99.90;;;;;;5114527;28;20388;-64
2022/12/09 12:04:35;;;;;;;31.88;28.58;;;7.10;99.90;;;;;;5114431;28;20499;-65
2022/12/09 12:07:14;;;;;;;30.88;27.75;;;7.00;99.90;;;;;;5113764;28;20027;-64
2022/12/09 12:09:51;;;;;;;31.65;28.55;;;7.00;99.90;;;;;;5114003;28;20051;-64
2022/12/09 12:12:27;;;;;;;33.05;29.33;;;7.40;99.90;;;;;;5114227;28;20034;-64
2022/12/09 12:14:55;;;;;;;28.48;25.48;;;7.50;99.90;;;;;;5113816;28;20069;-64
2022/12/09 12:17:26;;;;;;;28.23;25.42;;;7.50;99.90;;;;;;5113838;28;20047;-64
2022/12/09 12:19:55;;;;;;;27.42;24.73;;;7.80;99.90;;;;;;5113415;28;20032;-65
2022/12/09 12:22:58;;;;;;;27.92;25.13;;;8.00;99.90;;;;;;5114154;28;20507;-64
2022/12/09 12:25:54;;;;;;;29.92;25.48;;;7.80;99.90;;;;;;5113730;28;20383;-65
2022/12/09 12:28:25;;;;;;;30.73;27.55;;;7.40;99.90;;;;;;5114392;28;20034;-65
2022/12/09 12:30:57;;;;;;;29.92;27.00;;;7.20;99.90;;;;;;5113467;28;20051;-64
2022/12/09 12:33:46;;;;;;;30.58;27.38;;;7.20;99.90;;;;;;5113615;28;20042;-65
2022/12/09 12:36:21;;;;;;;55.38;49.42;;;7.30;99.90;;;;;;5113168;28;20063;-64
2022/12/09 12:39:03;;;;;;;36.17;32.38;;;7.30;99.90;;;;;;5113679;28;20016;-65
2022/12/09 12:41:41;;;;;;;79.28;71.00;;;7.50;99.90;;;;;;5113730;28;20024;-64
2022/12/09 12:47:11;;;;;;;138.43;124.22;;;7.20;99.90;;;;;;5113673;28;20088;-64
2022/12/09 12:49:52;;;;;;;26.20;23.50;;;7.30;99.90;;;;;;5112958;28;20122;-65
2022/12/09 12:52:55;;;;;;;23.10;20.92;;;7.20;99.90;;;;;;5113261;28;20046;-64
2022/12/09 12:55:39;;;;;;;26.30;23.60;;;7.00;99.90;;;;;;5050429;28;20037;-64